createdAt,value
2023-05-21T00:00:22.014Z,100.00
2023-05-21T00:02:52.356Z,100.00
2023-05-21T00:05:22.678Z,100.00
2023-05-21T00:07:55.713Z,100.00
2023-05-21T00:10:26.874Z,100.00
2023-05-21T00:12:57.066Z,100.00
2023-05-21T00:15:27.654Z,100.00
2023-05-21T00:17:57.837Z,100.00
2023-05-21T00:20:29.526Z,100.00
2023-05-21T00:23:02.990Z,100.00
2023-05-21T00:25:33.015Z,100.00
2023-05-21T00:28:03.264Z,100.00
2023-05-21T00:30:33.774Z,100.00
2023-05-21T00:33:05.034Z,100.00
2023-05-21T00:35:36.683Z,100.00
2023-05-21T00:38:09.834Z,100.00
2023-05-21T00:40:41.500Z,100.00
2023-05-21T00:43:12.574Z,100.00
2023-05-21T00:45:46.901Z,100.00
2023-05-21T00:48:17.766Z,100.00
2023-05-21T00:50:49.717Z,100.00
2023-05-21T00:53:22.875Z,100.00
2023-05-21T00:55:54.157Z,100.00
2023-05-21T00:58:24.570Z,100.00
2023-05-21T01:00:56.872Z,100.00
2023-05-21T01:03:27.393Z,100.00
2023-05-21T01:06:00.405Z,100.00
2023-05-21T01:08:35.155Z,100.00
2023-05-21T01:11:06.585Z,100.00
2023-05-21T01:13:41.089Z,100.00
2023-05-21T01:16:13.750Z,100.00
2023-05-21T01:18:45.479Z,100.00
2023-05-21T01:21:17.629Z,100.00
2023-05-21T01:23:50.762Z,100.00
2023-05-21T01:26:21.987Z,100.00
2023-05-21T01:28:53.096Z,100.00
2023-05-21T01:31:30.663Z,100.00
2023-05-21T01:34:04.720Z,100.00
2023-05-21T01:36:42.436Z,100.00
2023-05-21T01:39:22.807Z,100.00
2023-05-21T01:41:56.515Z,100.00
2023-05-21T01:44:29.140Z,100.00
2023-05-21T01:47:01.576Z,100.00
2023-05-21T01:49:32.485Z,100.00
2023-05-21T01:52:02.851Z,100.00
2023-05-21T01:54:35.607Z,100.00
2023-05-21T01:57:05.820Z,100.00
2023-05-21T01:59:36.784Z,100.00
2023-05-21T02:02:07.353Z,100.00
2023-05-21T02:04:37.599Z,100.00
2023-05-21T02:07:08.306Z,100.00
2023-05-21T02:09:41.399Z,100.00
2023-05-21T02:12:11.931Z,100.00
2023-05-21T02:14:42.131Z,100.00
2023-05-21T02:17:12.324Z,100.00
2023-05-21T02:19:43.723Z,100.00
2023-05-21T02:22:13.965Z,100.00
2023-05-21T02:24:47.428Z,100.00
2023-05-21T02:27:17.942Z,100.00
2023-05-21T02:29:48.138Z,100.00
2023-05-21T02:32:18.434Z,100.00
2023-05-21T02:34:48.666Z,100.00
2023-05-21T02:37:19.146Z,100.00
2023-05-21T02:39:52.044Z,100.00
2023-05-21T02:42:22.220Z,100.00
2023-05-21T02:44:52.385Z,100.00
2023-05-21T02:47:24.197Z,100.00
2023-05-21T02:49:56.182Z,100.00
2023-05-21T02:52:27.030Z,100.00
2023-05-21T02:55:00.178Z,100.00
2023-05-21T02:57:30.321Z,100.00
2023-05-21T03:00:00.441Z,100.00
2023-05-21T03:02:30.934Z,100.00
2023-05-21T03:05:01.161Z,100.00
2023-05-21T03:07:31.906Z,100.00
2023-05-21T03:10:05.455Z,100.00
2023-05-21T03:12:35.767Z,100.00
2023-05-21T03:15:06.078Z,100.00
2023-05-21T03:17:36.621Z,100.00
2023-05-21T03:20:09.143Z,100.00
2023-05-21T03:22:40.260Z,100.00
2023-05-21T03:25:13.637Z,100.00
2023-05-21T03:27:44.341Z,100.00
2023-05-21T03:30:37.489Z,100.00
2023-05-21T03:33:39.663Z,100.00
2023-05-21T03:36:21.850Z,100.00
2023-05-21T03:38:52.035Z,100.00
2023-05-21T03:41:25.411Z,100.00
2023-05-21T03:44:04.940Z,100.00
2023-05-21T03:46:45.669Z,100.00
2023-05-21T03:49:26.057Z,100.00
2023-05-21T03:51:58.777Z,100.00
2023-05-21T03:54:29.748Z,100.00
2023-05-21T03:57:07.466Z,100.00
2023-05-21T03:59:38.253Z,100.00
2023-05-21T04:02:08.594Z,100.00
2023-05-21T04:04:38.929Z,100.00
2023-05-21T04:07:14.785Z,100.00
2023-05-21T04:09:45.252Z,100.00
2023-05-21T04:12:20.528Z,100.00
2023-05-21T04:14:51.773Z,100.00
2023-05-21T04:17:22.253Z,100.00
2023-05-21T04:19:53.724Z,100.00
2023-05-21T04:22:26.762Z,100.00
2023-05-21T04:24:57.394Z,100.00
2023-05-21T04:27:34.820Z,100.00
2023-05-21T04:30:05.314Z,100.00
2023-05-21T04:32:38.839Z,100.00
2023-05-21T04:35:12.376Z,100.00
2023-05-21T04:37:42.534Z,100.00
2023-05-21T04:40:18.498Z,100.00
2023-05-21T04:42:51.491Z,100.00
2023-05-21T04:45:24.853Z,100.00
2023-05-21T04:48:00.808Z,100.00
2023-05-21T04:50:33.966Z,100.00
2023-05-21T04:53:04.785Z,100.00
2023-05-21T04:55:36.704Z,100.00
2023-05-21T04:58:11.253Z,100.00
2023-05-21T05:00:43.492Z,100.00
2023-05-21T05:03:13.868Z,100.00
2023-05-21T05:05:46.637Z,100.00
2023-05-21T05:08:17.341Z,100.00
2023-05-21T05:10:47.572Z,100.00
2023-05-21T05:13:22.110Z,100.00
2023-05-21T05:15:54.836Z,100.00
2023-05-21T05:18:25.401Z,100.00
2023-05-21T05:20:55.632Z,100.00
2023-05-21T05:23:25.870Z,100.00
2023-05-21T05:25:56.202Z,100.00
2023-05-21T05:28:29.075Z,100.00
2023-05-21T05:30:59.469Z,100.00
2023-05-21T05:33:30.051Z,100.00
2023-05-21T05:36:00.283Z,100.00
2023-05-21T05:38:30.488Z,100.00
2023-05-21T05:41:00.698Z,100.00
2023-05-21T05:43:33.527Z,100.00
2023-05-21T05:46:04.559Z,100.00
2023-05-21T05:48:34.868Z,100.00
2023-05-21T05:51:06.261Z,100.00
2023-05-21T05:53:36.463Z,100.00
2023-05-21T05:56:07.324Z,100.00
2023-05-21T05:58:40.048Z,100.00
2023-05-21T06:01:14.568Z,100.00
2023-05-21T06:03:44.845Z,100.00
2023-05-21T06:06:18.319Z,100.00
2023-05-21T06:08:49.280Z,100.00
2023-05-21T06:11:20.061Z,100.00
2023-05-21T06:13:53.118Z,100.00
2023-05-21T06:16:23.399Z,100.00
2023-05-21T06:18:53.687Z,100.00
2023-05-21T06:21:24.016Z,100.00
2023-05-21T06:23:54.458Z,100.00
2023-05-21T06:26:24.844Z,100.00
2023-05-21T06:28:58.180Z,100.00
2023-05-21T06:31:28.968Z,100.00
2023-05-21T06:33:59.389Z,100.00
2023-05-21T06:36:30.509Z,100.00
2023-05-21T06:39:01.343Z,100.00
2023-05-21T06:41:31.800Z,100.00
2023-05-21T06:44:08.791Z,100.00
2023-05-21T06:47:04.616Z,100.00
2023-05-21T06:49:35.263Z,100.00
2023-05-21T06:52:05.528Z,100.00
2023-05-21T06:54:35.954Z,100.00
2023-05-21T06:57:06.299Z,100.00
2023-05-21T06:59:39.119Z,100.00
2023-05-21T07:02:09.928Z,100.00
2023-05-21T07:04:40.300Z,100.00
2023-05-21T07:07:10.530Z,100.00
2023-05-21T07:09:40.863Z,100.00
2023-05-21T07:12:11.896Z,100.00
2023-05-21T07:14:44.676Z,100.00
2023-05-21T07:17:14.954Z,100.00
2023-05-21T07:19:45.311Z,100.00
2023-05-21T07:22:15.813Z,100.00
2023-05-21T07:24:46.142Z,100.00
2023-05-21T07:27:25.252Z,100.00
2023-05-21T07:30:00.675Z,100.00
2023-05-21T07:32:31.156Z,100.00
2023-05-21T07:35:04.889Z,100.00
2023-05-21T07:37:35.579Z,100.00
2023-05-21T07:40:08.751Z,100.00
2023-05-21T07:42:39.660Z,100.00
2023-05-21T07:45:14.140Z,100.00
2023-05-21T07:47:48.714Z,100.00
2023-05-21T07:50:19.275Z,100.00
2023-05-21T07:52:49.532Z,100.00
2023-05-21T07:55:19.862Z,100.00
2023-05-21T07:57:52.538Z,100.00
2023-05-21T08:00:31.269Z,100.00
2023-05-21T08:03:02.835Z,100.00
2023-05-21T08:05:33.444Z,100.00
2023-05-21T08:08:05.306Z,100.00
2023-05-21T08:10:37.329Z,100.00
2023-05-21T08:13:07.648Z,100.00
2023-05-21T08:15:40.772Z,100.00
2023-05-21T08:18:12.453Z,100.00
2023-05-21T08:20:44.841Z,100.00
2023-05-21T08:23:15.866Z,100.00
2023-05-21T08:25:53.791Z,100.00
2023-05-21T08:28:25.642Z,100.00
2023-05-21T08:30:58.728Z,100.00
2023-05-21T08:33:29.378Z,100.00
2023-05-21T08:35:59.793Z,100.00
2023-05-21T08:38:38.257Z,100.00
2023-05-21T08:41:28.102Z,100.00
2023-05-21T08:44:00.498Z,100.00
2023-05-21T08:46:36.204Z,100.00
2023-05-21T08:49:06.816Z,100.00
2023-05-21T08:51:37.144Z,100.00
2023-05-21T08:54:08.353Z,100.00
2023-05-21T08:56:38.700Z,100.00
2023-05-21T08:59:10.283Z,100.00
2023-05-21T09:01:45.077Z,100.00
2023-05-21T09:04:24.421Z,100.00
2023-05-21T09:06:58.226Z,100.00
2023-05-21T09:09:59.228Z,99.78
2023-05-21T09:12:30.664Z,95.77
2023-05-21T09:15:04.120Z,99.89
2023-05-21T09:17:40.214Z,96.75
2023-05-21T09:20:31.702Z,94.30
2023-05-21T09:23:07.437Z,94.32
2023-05-21T09:25:42.242Z,97.37
2023-05-21T09:28:18.328Z,97.34
2023-05-21T09:30:49.538Z,95.11
2023-05-21T09:33:32.335Z,89.71
2023-05-21T09:36:02.637Z,91.01
2023-05-21T09:38:32.857Z,92.57
2023-05-21T09:41:07.402Z,89.93
2023-05-21T09:43:39.435Z,85.35
2023-05-21T09:46:09.919Z,84.14
2023-05-21T09:48:44.044Z,84.02
2023-05-21T09:51:20.370Z,84.23
2023-05-21T09:53:53.249Z,82.06
2023-05-21T09:56:25.814Z,82.60
2023-05-21T09:58:57.554Z,82.10
2023-05-21T10:01:28.320Z,82.82
2023-05-21T10:04:02.365Z,80.26
2023-05-21T10:06:34.153Z,80.99
2023-05-21T10:09:10.839Z,81.51
2023-05-21T10:11:42.243Z,83.55
2023-05-21T10:14:18.314Z,73.61
2023-05-21T10:16:50.506Z,72.77
2023-05-21T10:19:25.896Z,75.12
2023-05-21T10:21:57.486Z,75.70
2023-05-21T10:24:28.253Z,76.65
2023-05-21T10:26:58.994Z,75.71
2023-05-21T10:29:29.292Z,76.25
2023-05-21T10:32:00.237Z,81.57
2023-05-21T10:34:34.246Z,76.44
2023-05-21T10:37:06.191Z,74.43
2023-05-21T10:39:37.759Z,70.93
2023-05-21T10:42:19.768Z,71.00
2023-05-21T10:45:09.214Z,71.15
2023-05-21T10:48:06.727Z,69.09
2023-05-21T10:50:54.750Z,67.84
2023-05-21T10:53:32.068Z,72.32
2023-05-21T10:56:17.301Z,73.66
2023-05-21T10:59:15.445Z,72.68
2023-05-21T11:01:46.030Z,73.92
2023-05-21T11:04:17.699Z,66.92
2023-05-21T11:06:55.473Z,71.17
2023-05-21T11:09:26.146Z,74.60
2023-05-21T11:11:58.295Z,66.90
2023-05-21T11:14:39.658Z,72.83
2023-05-21T11:17:15.794Z,65.96
2023-05-21T11:19:47.658Z,66.13
2023-05-21T11:22:27.841Z,64.12
2023-05-21T11:24:59.684Z,68.07
2023-05-21T11:27:37.024Z,65.12
2023-05-21T11:30:12.370Z,62.04
2023-05-21T11:32:43.476Z,64.34
2023-05-21T11:35:17.494Z,65.13
2023-05-21T11:37:56.554Z,65.57
2023-05-21T11:40:31.314Z,66.36
2023-05-21T11:43:05.949Z,64.47
2023-05-21T11:45:36.518Z,63.87
2023-05-21T11:48:08.067Z,65.08
2023-05-21T11:50:39.595Z,67.12
2023-05-21T11:53:13.937Z,67.33
2023-05-21T11:55:47.985Z,64.27
2023-05-21T11:58:19.497Z,65.37
2023-05-21T12:00:56.636Z,70.11
2023-05-21T12:03:30.784Z,68.65
2023-05-21T12:06:08.643Z,64.17
2023-05-21T12:08:43.426Z,63.95
2023-05-21T12:11:16.160Z,62.29
2023-05-21T12:13:47.181Z,62.39
2023-05-21T12:16:17.977Z,61.03
2023-05-21T12:18:48.404Z,61.71
2023-05-21T12:21:18.736Z,59.49
2023-05-21T12:23:51.525Z,58.54
2023-05-21T12:26:22.095Z,59.75
2023-05-21T12:28:54.782Z,59.81
2023-05-21T12:31:27.690Z,59.95
2023-05-21T12:34:05.226Z,61.10
2023-05-21T12:36:35.369Z,61.13
2023-05-21T12:39:18.048Z,64.68
2023-05-21T12:41:48.280Z,59.25
2023-05-21T12:44:18.500Z,59.54
2023-05-21T12:46:48.717Z,62.70
2023-05-21T12:49:35.040Z,59.73
2023-05-21T12:52:11.211Z,62.94
2023-05-21T12:54:46.062Z,60.89
2023-05-21T12:57:19.048Z,62.08
2023-05-21T12:59:52.578Z,54.91
2023-05-21T13:02:27.936Z,58.25
2023-05-21T13:05:00.727Z,62.90
2023-05-21T13:07:32.007Z,56.77
2023-05-21T13:10:05.374Z,57.11
2023-05-21T13:12:37.024Z,53.14
2023-05-21T13:15:11.266Z,56.40
2023-05-21T13:17:41.643Z,54.68
2023-05-21T13:20:15.523Z,53.58
2023-05-21T13:22:47.346Z,55.88
2023-05-21T13:25:21.700Z,56.92
2023-05-21T13:27:52.788Z,56.10
2023-05-21T13:30:23.868Z,54.45
2023-05-21T13:32:54.630Z,57.75
2023-05-21T13:35:25.314Z,57.82
2023-05-21T13:37:55.652Z,55.99
2023-05-21T13:40:28.416Z,53.16
2023-05-21T13:42:58.654Z,52.14
2023-05-21T13:45:29.665Z,50.25
2023-05-21T13:48:00.018Z,54.17
2023-05-21T13:50:30.401Z,51.33
2023-05-21T13:53:00.602Z,51.21
2023-05-21T13:55:36.317Z,52.95
2023-05-21T13:58:06.719Z,51.56
2023-05-21T14:00:37.457Z,48.93
2023-05-21T14:03:10.226Z,53.69
2023-05-21T14:05:40.490Z,51.03
2023-05-21T14:08:10.768Z,48.60
2023-05-21T14:10:43.558Z,47.75
2023-05-21T14:13:19.560Z,49.85
2023-05-21T14:15:50.807Z,49.49
2023-05-21T14:18:21.038Z,48.24
2023-05-21T14:20:51.151Z,48.97
2023-05-21T14:23:21.300Z,48.46
2023-05-21T14:25:54.059Z,47.75
2023-05-21T14:28:24.933Z,48.23
2023-05-21T14:30:55.555Z,47.22
2023-05-21T14:33:25.861Z,45.99
2023-05-21T14:35:56.083Z,48.89
2023-05-21T14:38:26.623Z,47.57
2023-05-21T14:40:59.616Z,47.03
2023-05-21T14:43:29.450Z,46.80
2023-05-21T14:45:59.662Z,50.37
2023-05-21T14:48:29.860Z,50.17
2023-05-21T14:51:00.662Z,47.67
2023-05-21T14:53:30.819Z,51.66
2023-05-21T14:56:03.662Z,47.89
2023-05-21T14:58:33.789Z,46.64
2023-05-21T15:01:04.461Z,48.33
2023-05-21T15:03:34.822Z,49.76
2023-05-21T15:06:05.032Z,48.99
2023-05-21T15:08:35.252Z,47.11
2023-05-21T15:11:10.210Z,46.35
2023-05-21T15:13:41.346Z,47.28
2023-05-21T15:16:11.573Z,48.75
2023-05-21T15:18:43.723Z,50.87
2023-05-21T15:21:14.000Z,49.76
2023-05-21T15:23:44.137Z,47.79
2023-05-21T15:26:16.910Z,48.22
2023-05-21T15:28:47.090Z,50.85
2023-05-21T15:31:17.250Z,49.87
2023-05-21T15:33:47.432Z,49.79
2023-05-21T15:36:17.823Z,50.37
2023-05-21T15:38:48.006Z,47.20
2023-05-21T15:41:22.182Z,48.86
2023-05-21T15:43:52.317Z,47.56
2023-05-21T15:46:22.447Z,50.59
2023-05-21T15:48:52.674Z,49.93
2023-05-21T15:51:22.969Z,49.76
2023-05-21T15:53:53.169Z,48.83
2023-05-21T15:56:26.843Z,50.37
2023-05-21T15:58:58.867Z,50.65
2023-05-21T16:01:30.079Z,48.82
2023-05-21T16:04:00.479Z,51.41
2023-05-21T16:06:31.739Z,51.74
2023-05-21T16:09:02.481Z,53.70
2023-05-21T16:11:35.256Z,53.88
2023-05-21T16:14:05.429Z,54.81
2023-05-21T16:16:37.903Z,55.70
2023-05-21T16:19:08.176Z,54.62
2023-05-21T16:21:38.392Z,56.92
2023-05-21T16:24:09.614Z,57.85
2023-05-21T16:26:42.470Z,55.49
2023-05-21T16:29:12.739Z,55.35
2023-05-21T16:31:42.898Z,56.10
2023-05-21T16:34:13.090Z,56.47
2023-05-21T16:36:43.244Z,56.83
2023-05-21T16:39:13.474Z,58.42
2023-05-21T16:41:46.375Z,58.49
2023-05-21T16:44:16.579Z,60.23
2023-05-21T16:46:46.749Z,61.35
2023-05-21T16:49:16.928Z,61.15
2023-05-21T16:51:47.119Z,63.68
2023-05-21T16:54:17.333Z,63.54
2023-05-21T16:56:50.113Z,64.93
2023-05-21T16:59:20.227Z,65.67
2023-05-21T17:01:50.496Z,68.07
2023-05-21T17:04:20.770Z,70.40
2023-05-21T17:06:51.555Z,71.57
2023-05-21T17:09:21.785Z,73.73
2023-05-21T17:11:54.617Z,76.96
2023-05-21T17:14:33.964Z,78.96
2023-05-21T17:17:05.157Z,82.01
2023-05-21T17:19:35.637Z,84.29
2023-05-21T17:22:06.198Z,86.55
2023-05-21T17:24:36.407Z,88.61
2023-05-21T17:27:09.600Z,90.05
2023-05-21T17:29:39.465Z,91.40
2023-05-21T17:32:09.974Z,92.36
2023-05-21T17:34:40.130Z,93.43
2023-05-21T17:37:10.255Z,93.08
2023-05-21T17:39:40.728Z,93.84
2023-05-21T17:42:13.608Z,93.71
2023-05-21T17:44:43.767Z,93.70
2023-05-21T17:47:14.008Z,95.54
2023-05-21T17:49:44.211Z,97.09
2023-05-21T17:52:14.452Z,99.12
2023-05-21T17:54:46.832Z,99.78
2023-05-21T17:57:23.810Z,100.00
2023-05-21T17:59:55.360Z,100.00
2023-05-21T18:02:29.910Z,100.00
2023-05-21T18:05:00.185Z,100.00
2023-05-21T18:07:32.851Z,100.00
2023-05-21T18:10:03.200Z,100.00
2023-05-21T18:12:35.961Z,100.00
2023-05-21T18:15:06.387Z,100.00
2023-05-21T18:17:37.063Z,100.00
2023-05-21T18:20:07.957Z,100.00
2023-05-21T18:22:46.686Z,100.00
2023-05-21T18:25:16.949Z,100.00
2023-05-21T18:27:49.704Z,100.00
2023-05-21T18:30:20.150Z,100.00
2023-05-21T18:32:50.411Z,100.00
2023-05-21T18:35:21.975Z,100.00
2023-05-21T18:37:52.231Z,100.00
2023-05-21T18:40:25.168Z,100.00
2023-05-21T18:42:57.986Z,100.00
2023-05-21T18:45:28.707Z,100.00
2023-05-21T18:48:01.542Z,100.00
2023-05-21T18:50:33.371Z,100.00
2023-05-21T18:53:03.696Z,100.00
2023-05-21T18:55:36.010Z,100.00
2023-05-21T19:00:55.769Z,100.00
2023-05-21T19:03:30.405Z,100.00
2023-05-21T19:06:03.966Z,100.00
2023-05-21T19:08:34.880Z,100.00
2023-05-21T19:11:07.375Z,100.00
2023-05-21T19:13:43.007Z,100.00
2023-05-21T19:16:20.883Z,100.00
2023-05-21T19:18:53.371Z,100.00
2023-05-21T19:21:23.974Z,100.00
2023-05-21T19:23:54.226Z,100.00
2023-05-21T19:26:34.283Z,100.00
2023-05-21T19:29:12.853Z,100.00
2023-05-21T19:31:57.563Z,100.00
2023-05-21T19:34:36.543Z,100.00
2023-05-21T19:37:07.054Z,100.00
2023-05-21T19:39:40.879Z,100.00
2023-05-21T19:42:15.417Z,100.00
2023-05-21T19:44:58.419Z,100.00
2023-05-21T19:47:31.071Z,100.00
2023-05-21T19:50:12.932Z,100.00
2023-05-21T19:52:43.443Z,100.00
2023-05-21T19:55:23.344Z,100.00
2023-05-21T19:57:55.632Z,100.00
2023-05-21T20:00:35.296Z,100.00
2023-05-21T20:03:10.683Z,100.00
2023-05-21T20:05:45.726Z,100.00
2023-05-21T20:08:18.719Z,100.00
2023-05-21T20:10:51.411Z,100.00
2023-05-21T20:13:22.330Z,100.00
2023-05-21T20:16:00.566Z,100.00
2023-05-21T20:18:32.146Z,100.00
2023-05-21T20:21:06.578Z,100.00
2023-05-21T20:23:37.157Z,100.00
2023-05-21T20:26:09.879Z,100.00
2023-05-21T20:28:42.249Z,100.00
2023-05-21T20:31:27.946Z,100.00
2023-05-21T20:34:01.130Z,100.00
2023-05-21T20:36:34.161Z,100.00
2023-05-21T20:39:05.296Z,100.00
2023-05-21T20:41:37.923Z,100.00
2023-05-21T20:44:08.873Z,100.00
2023-05-21T20:46:41.928Z,100.00
2023-05-21T20:49:12.533Z,100.00
2023-05-21T20:51:43.059Z,100.00
2023-05-21T20:54:14.417Z,100.00
2023-05-21T20:56:45.270Z,100.00
2023-05-21T20:59:15.433Z,100.00
2023-05-21T21:01:48.287Z,100.00
2023-05-21T21:04:19.178Z,100.00
2023-05-21T21:06:50.512Z,100.00
2023-05-21T21:09:20.715Z,100.00
2023-05-21T21:11:51.269Z,100.00
2023-05-21T21:14:21.408Z,100.00
2023-05-21T21:16:54.167Z,100.00
2023-05-21T21:19:24.331Z,100.00
2023-05-21T21:21:54.707Z,100.00
2023-05-21T21:24:24.983Z,100.00
2023-05-21T21:26:55.106Z,100.00
2023-05-21T21:29:25.263Z,100.00
2023-05-21T21:31:58.220Z,100.00
2023-05-21T21:34:28.352Z,100.00
2023-05-21T21:36:58.502Z,100.00
2023-05-21T21:39:28.764Z,100.00
2023-05-21T21:41:58.995Z,100.00
2023-05-21T21:44:29.112Z,100.00
2023-05-21T21:47:01.864Z,100.00
2023-05-21T21:49:31.952Z,100.00
2023-05-21T21:52:02.119Z,100.00
2023-05-21T21:54:32.242Z,100.00
2023-05-21T21:57:02.404Z,100.00
2023-05-21T21:59:32.512Z,100.00
2023-05-21T22:02:05.275Z,100.00
2023-05-21T22:04:35.458Z,100.00
2023-05-21T22:07:06.147Z,100.00
2023-05-21T22:09:36.376Z,100.00
2023-05-21T22:12:07.946Z,100.00
2023-05-21T22:14:38.435Z,100.00
2023-05-21T22:17:11.276Z,100.00
2023-05-21T22:19:41.462Z,100.00
2023-05-21T22:22:12.335Z,100.00
2023-05-21T22:24:42.469Z,100.00
2023-05-21T22:27:12.578Z,100.00
2023-05-21T22:29:42.828Z,100.00
2023-05-21T22:32:15.868Z,100.00
2023-05-21T22:34:46.213Z,100.00
2023-05-21T22:37:16.320Z,100.00
2023-05-21T22:39:46.480Z,100.00
2023-05-21T22:42:16.635Z,100.00
2023-05-21T22:44:46.802Z,100.00
2023-05-21T22:47:23.477Z,100.00
2023-05-21T22:49:54.751Z,100.00
2023-05-21T22:52:25.156Z,100.00
2023-05-21T22:54:55.473Z,100.00
2023-05-21T22:57:25.847Z,100.00
2023-05-21T22:59:56.259Z,100.00
2023-05-21T23:02:29.167Z,100.00
2023-05-21T23:04:59.390Z,100.00
2023-05-21T23:07:29.581Z,100.00
2023-05-21T23:09:59.719Z,100.00
2023-05-21T23:12:29.935Z,100.00
2023-05-21T23:15:00.183Z,100.00
2023-05-21T23:17:32.989Z,100.00
2023-05-21T23:20:03.139Z,100.00
2023-05-21T23:22:33.385Z,100.00
2023-05-21T23:25:04.034Z,100.00
2023-05-21T23:27:34.177Z,100.00
2023-05-21T23:30:04.633Z,100.00
2023-05-21T23:32:37.697Z,100.00
2023-05-21T23:35:09.589Z,100.00
2023-05-21T23:37:39.810Z,100.00
2023-05-21T23:40:11.870Z,100.00
2023-05-21T23:42:42.121Z,100.00
2023-05-21T23:45:13.332Z,100.00
2023-05-21T23:47:46.140Z,100.00
2023-05-21T23:50:16.703Z,100.00
2023-05-21T23:52:47.054Z,100.00
2023-05-21T23:55:17.223Z,100.00
2023-05-21T23:57:47.379Z,100.00
